Time;durP1;ratioP1;P1;durP2;ratioP2;P2;SDS_P1;SDS_P2;PMS_P1;PMS_P2;Temp;Humidity;BMP_temperature;BMP_pressure;BME280_temperature;BME280_humidity;BME280_pressure;Samples;Min_cycle;Max_cycle;Signal;HPM_P1;HPM_P2
2024/03/24 00:01:10;;;;;;;1.03;0.90;;;4.60;99.90;;;;;;5098546;28;20198;-51
2024/03/24 00:03:37;;;;;;;0.90;0.90;;;4.50;99.90;;;;;;5098446;28;20638;-56
2024/03/24 00:06:03;;;;;;;1.98;1.20;;;4.40;99.90;;;;;;5098696;28;20196;-55
2024/03/24 00:08:29;;;;;;;0.93;0.82;;;4.40;99.90;;;;;;5118440;28;20199;-55
2024/03/24 00:10:57;;;;;;;1.55;0.90;;;4.50;99.90;;;;;;5118550;28;20170;-53
2024/03/24 00:13:23;;;;;;;2.35;1.27;;;4.30;99.90;;;;;;5118686;28;20714;-51
2024/03/24 00:15:48;;;;;;;0.87;0.73;;;4.10;99.90;;;;;;5118777;28;20176;-52
2024/03/24 00:18:14;;;;;;;0.63;0.63;;;4.00;99.90;;;;;;5118558;28;20810;-54
2024/03/24 00:20:39;;;;;;;2.20;0.90;;;4.00;99.90;;;;;;5118601;28;20183;-50
2024/03/24 00:23:07;;;;;;;1.03;1.03;;;4.10;99.90;;;;;;5118675;28;20186;-55
2024/03/24 00:25:33;;;;;;;0.50;0.50;;;4.30;99.90;;;;;;5118412;28;20207;-55
2024/03/24 00:27:59;;;;;;;1.17;0.70;;;4.40;99.90;;;;;;5118524;28;20216;-51
2024/03/24 00:30:25;;;;;;;0.80;0.80;;;4.50;99.90;;;;;;5118627;28;20195;-52
2024/03/24 00:32:52;;;;;;;1.67;0.87;;;4.40;99.90;;;;;;5118689;28;20213;-55
2024/03/24 00:35:18;;;;;;;1.92;1.83;;;4.30;99.90;;;;;;5118610;28;20183;-54
2024/03/24 00:37:44;;;;;;;0.70;0.70;;;4.40;99.90;;;;;;5118484;28;20231;-51
2024/03/24 00:40:09;;;;;;;1.07;1.00;;;4.50;99.90;;;;;;5118235;28;20211;-56
2024/03/24 00:42:35;;;;;;;0.93;0.93;;;4.50;99.90;;;;;;5118461;28;20225;-56
2024/03/24 00:45:01;;;;;;;0.70;0.60;;;4.50;99.90;;;;;;5118415;28;20198;-56
2024/03/24 00:47:27;;;;;;;1.80;0.90;;;4.40;99.90;;;;;;5118400;28;20421;-52
2024/03/24 00:49:53;;;;;;;1.13;1.02;;;4.50;99.90;;;;;;5118176;28;20168;-53
2024/03/24 00:52:18;;;;;;;3.07;0.73;;;4.60;99.90;;;;;;5118897;28;20251;-54
2024/03/24 00:54:44;;;;;;;3.20;0.77;;;4.60;99.90;;;;;;5118262;28;20578;-53
2024/03/24 00:57:10;;;;;;;1.40;0.70;;;4.60;99.90;;;;;;5118191;28;20208;-50
2024/03/24 00:59:35;;;;;;;0.80;0.60;;;4.70;99.90;;;;;;5116445;28;20164;-55
2024/03/24 01:02:01;;;;;;;0.70;0.70;;;4.60;99.90;;;;;;5115115;28;20512;-53
2024/03/24 01:04:26;;;;;;;0.50;0.50;;;4.60;99.90;;;;;;5115147;28;20179;-55
2024/03/24 01:06:52;;;;;;;0.63;0.63;;;4.60;99.90;;;;;;5114915;28;20200;-53
2024/03/24 01:09:18;;;;;;;0.53;0.53;;;4.50;99.90;;;;;;5114624;28;20179;-52
2024/03/24 01:11:43;;;;;;;0.60;0.60;;;4.50;99.90;;;;;;5114903;28;20672;-56
2024/03/24 01:14:09;;;;;;;0.60;0.50;;;4.50;99.90;;;;;;5114911;28;20168;-52
2024/03/24 01:16:34;;;;;;;0.70;0.67;;;4.50;99.90;;;;;;5114858;28;20336;-51
2024/03/24 01:19:00;;;;;;;0.80;0.80;;;4.50;99.90;;;;;;5114558;28;20661;-52
2024/03/24 01:21:25;;;;;;;2.20;0.60;;;4.40;99.90;;;;;;5114797;28;20255;-55
2024/03/24 01:23:51;;;;;;;0.63;0.63;;;4.40;99.90;;;;;;5114626;28;20171;-51
2024/03/24 01:26:17;;;;;;;0.60;0.60;;;4.20;99.90;;;;;;5114479;28;20199;-53
2024/03/24 01:28:42;;;;;;;0.80;0.63;;;4.20;99.90;;;;;;5114588;28;20171;-50
2024/03/24 01:31:08;;;;;;;1.23;1.07;;;4.20;99.90;;;;;;5114610;28;20642;-53
2024/03/24 01:33:33;;;;;;;0.60;0.60;;;4.20;99.90;;;;;;5114678;28;20199;-56
2024/03/24 01:35:59;;;;;;;0.93;0.80;;;4.20;99.90;;;;;;5114570;28;20187;-51
2024/03/24 01:38:25;;;;;;;1.40;1.30;;;4.20;99.90;;;;;;5114166;28;20677;-51
2024/03/24 01:40:51;;;;;;;0.70;0.70;;;4.30;99.90;;;;;;5114255;28;20418;-50
2024/03/24 01:43:18;;;;;;;0.98;0.55;;;4.30;99.90;;;;;;5114519;28;20604;-52
2024/03/24 01:45:48;;;;;;;0.50;0.50;;;4.40;99.90;;;;;;5114296;28;20192;-51
2024/03/24 01:48:15;;;;;;;0.70;0.70;;;4.40;99.90;;;;;;5114122;28;20272;-56
2024/03/24 01:50:40;;;;;;;0.90;0.90;;;4.40;99.90;;;;;;5114093;28;20217;-54
2024/03/24 01:53:10;;;;;;;0.50;0.50;;;4.50;99.90;;;;;;5114144;28;20168;-50
2024/03/24 01:55:36;;;;;;;0.70;0.50;;;4.40;99.90;;;;;;5114072;28;20164;-54
2024/03/24 01:58:02;;;;;;;0.43;0.43;;;4.50;99.90;;;;;;5113940;28;20560;-53
2024/03/24 02:00:28;;;;;;;0.40;0.40;;;4.40;99.90;;;;;;5113877;28;20703;-54
2024/03/24 02:02:54;;;;;;;0.40;0.40;;;4.30;99.90;;;;;;5113961;28;20180;-54
2024/03/24 02:05:24;;;;;;;2.33;0.70;;;4.20;99.90;;;;;;5113879;28;20192;-52
2024/03/24 02:07:50;;;;;;;0.47;0.47;;;4.30;99.90;;;;;;5113750;28;20187;-55
2024/03/24 02:10:16;;;;;;;0.70;0.55;;;4.30;99.90;;;;;;5113552;28;20688;-51
2024/03/24 02:12:42;;;;;;;0.47;0.47;;;4.30;99.90;;;;;;5113650;28;20176;-50
2024/03/24 02:15:08;;;;;;;0.60;0.60;;;4.30;99.90;;;;;;5113740;28;20747;-52
2024/03/24 02:17:34;;;;;;;0.57;0.40;;;4.10;99.90;;;;;;5113650;28;20279;-49
2024/03/24 02:19:59;;;;;;;0.67;0.67;;;4.10;99.90;;;;;;5113380;28;20402;-53
2024/03/24 02:22:25;;;;;;;0.40;0.40;;;4.20;99.90;;;;;;5113521;28;20933;-53
2024/03/24 02:24:50;;;;;;;0.60;0.60;;;4.30;99.90;;;;;;5113485;28;20171;-53
2024/03/24 02:27:16;;;;;;;0.63;0.63;;;4.30;99.90;;;;;;5113380;28;20203;-52
2024/03/24 02:29:42;;;;;;;0.90;0.90;;;4.30;99.90;;;;;;5113220;28;20652;-50
2024/03/24 02:32:07;;;;;;;0.67;0.67;;;4.30;99.90;;;;;;5113421;28;20176;-56
2024/03/24 02:34:33;;;;;;;0.50;0.50;;;4.30;99.90;;;;;;5113368;28;20169;-52
2024/03/24 02:36:59;;;;;;;0.50;0.50;;;4.20;99.90;;;;;;5113141;28;20667;-55
2024/03/24 02:39:24;;;;;;;0.50;0.50;;;4.20;99.90;;;;;;5112943;28;20786;-53
2024/03/24 02:41:50;;;;;;;2.10;0.70;;;4.20;99.90;;;;;;5113247;28;20565;-53
2024/03/24 02:44:16;;;;;;;0.60;0.60;;;4.30;99.90;;;;;;5113169;28;20195;-52
2024/03/24 02:46:42;;;;;;;0.60;0.60;;;4.10;99.90;;;;;;5113042;28;20231;-50
2024/03/24 02:49:08;;;;;;;0.60;0.60;;;4.00;99.90;;;;;;5112885;28;20208;-52
2024/03/24 02:51:33;;;;;;;0.65;0.55;;;4.00;99.90;;;;;;5112901;28;20221;-51
2024/03/24 02:53:59;;;;;;;0.60;0.60;;;4.10;99.90;;;;;;5112957;28;20172;-53
2024/03/24 02:56:25;;;;;;;0.80;0.67;;;4.10;99.90;;;;;;5112763;28;22443;-55
2024/03/24 02:58:51;;;;;;;1.23;0.63;;;4.20;99.90;;;;;;5112736;28;20179;-54
2024/03/24 03:01:17;;;;;;;1.03;0.80;;;4.20;99.90;;;;;;5112849;28;20927;-50
2024/03/24 03:03:45;;;;;;;0.77;0.77;;;4.10;99.90;;;;;;5113042;28;20180;-51
2024/03/24 03:06:11;;;;;;;0.65;0.65;;;4.10;99.90;;;;;;5112581;28;20211;-55
2024/03/24 03:08:37;;;;;;;0.98;0.60;;;4.10;99.90;;;;;;5112505;28;20176;-56
2024/03/24 03:11:04;;;;;;;0.55;0.55;;;3.80;99.90;;;;;;5112586;28;20563;-55
2024/03/24 03:13:29;;;;;;;1.15;0.70;;;3.90;99.90;;;;;;5112575;28;20172;-53
2024/03/24 03:15:55;;;;;;;0.73;0.40;;;4.00;99.90;;;;;;5112541;28;20178;-54
2024/03/24 03:18:21;;;;;;;0.50;0.50;;;4.10;99.90;;;;;;5112308;28;20208;-53
2024/03/24 03:20:47;;;;;;;0.50;0.50;;;4.20;99.90;;;;;;5112350;28;20172;-54
2024/03/24 03:23:14;;;;;;;1.73;0.60;;;4.20;99.90;;;;;;5111876;28;20808;-55
2024/03/24 03:25:39;;;;;;;0.75;0.52;;;4.20;99.90;;;;;;5112325;28;20207;-55
2024/03/24 03:28:05;;;;;;;0.83;0.83;;;4.20;99.90;;;;;;5112172;28;20192;-53
2024/03/24 03:30:31;;;;;;;1.20;0.70;;;4.20;99.90;;;;;;5112378;28;20462;-51
2024/03/24 03:32:56;;;;;;;0.47;0.47;;;4.00;99.90;;;;;;5112333;28;20172;-52
2024/03/24 03:35:22;;;;;;;0.50;0.50;;;4.00;99.90;;;;;;5112263;28;20637;-51
2024/03/24 03:37:48;;;;;;;0.87;0.87;;;4.10;99.90;;;;;;5110877;28;20188;-53
2024/03/24 03:40:14;;;;;;;0.60;0.60;;;4.10;99.90;;;;;;5112076;28;20168;-54
2024/03/24 03:42:39;;;;;;;1.57;1.13;;;4.10;99.90;;;;;;5112509;28;20183;-52
2024/03/24 03:45:06;;;;;;;0.67;0.67;;;4.10;99.90;;;;;;5112100;28;20402;-53
2024/03/24 03:47:32;;;;;;;0.45;0.45;;;4.20;99.90;;;;;;5112053;28;20188;-55
2024/03/24 03:50:00;;;;;;;0.50;0.50;;;4.20;99.90;;;;;;5112017;28;20183;-53
2024/03/24 03:52:29;;;;;;;0.60;0.60;;;4.20;99.90;;;;;;5112013;28;20164;-54
2024/03/24 03:55:00;;;;;;;0.60;0.60;;;4.20;99.90;;;;;;5112364;28;20526;-54
2024/03/24 03:57:26;;;;;;;0.80;0.80;;;4.20;99.90;;;;;;5112108;28;20214;-49
2024/03/24 03:59:52;;;;;;;0.40;0.40;;;4.10;99.90;;;;;;5111865;28;20184;-48
2024/03/24 04:02:17;;;;;;;0.57;0.40;;;4.10;99.90;;;;;;5112184;28;20244;-51
2024/03/24 04:04:44;;;;;;;0.53;0.53;;;3.90;99.90;;;;;;5112085;28;20428;-50
2024/03/24 04:07:11;;;;;;;0.50;0.40;;;3.70;99.90;;;;;;5111759;28;20461;-54
2024/03/24 04:09:37;;;;;;;0.60;0.60;;;3.70;99.90;;;;;;5111758;28;20251;-53
2024/03/24 04:12:03;;;;;;;0.50;0.50;;;3.60;99.90;;;;;;5112023;28;20200;-53
2024/03/24 04:14:29;;;;;;;0.35;0.35;;;3.50;99.90;;;;;;5112026;28;20505;-51
2024/03/24 04:16:55;;;;;;;0.57;0.57;;;3.50;99.90;;;;;;5111992;28;20287;-51
2024/03/24 04:19:20;;;;;;;0.50;0.40;;;3.40;99.90;;;;;;5111565;28;20413;-55
2024/03/24 04:21:47;;;;;;;0.50;0.50;;;3.50;99.90;;;;;;5111773;28;20200;-53
2024/03/24 04:24:13;;;;;;;0.30;0.30;;;3.50;99.90;;;;;;5112242;28;20176;-52
2024/03/24 04:26:38;;;;;;;0.90;0.70;;;3.50;99.90;;;;;;5111769;28;20580;-53
2024/03/24 04:29:04;;;;;;;0.80;0.80;;;3.70;99.90;;;;;;5111653;28;20178;-52
2024/03/24 04:31:29;;;;;;;0.60;0.53;;;3.60;99.90;;;;;;5112247;28;20168;-53
2024/03/24 04:33:55;;;;;;;0.60;0.60;;;3.50;99.90;;;;;;5111708;28;20170;-52
2024/03/24 04:36:21;;;;;;;0.50;0.50;;;3.10;99.90;;;;;;5114331;28;20170;-56
2024/03/24 04:38:46;;;;;;;0.83;0.80;;;3.40;99.90;;;;;;5115535;28;20673;-51
2024/03/24 04:41:12;;;;;;;0.60;0.60;;;3.50;99.90;;;;;;5115613;28;20168;-52
2024/03/24 04:43:37;;;;;;;0.70;0.70;;;3.60;99.90;;;;;;5115871;28;20263;-51
2024/03/24 04:46:03;;;;;;;0.40;0.40;;;3.50;99.90;;;;;;5115503;28;20200;-49
2024/03/24 04:48:29;;;;;;;0.60;0.50;;;3.70;99.90;;;;;;5115200;28;20188;-51
2024/03/24 04:50:54;;;;;;;0.50;0.50;;;3.90;99.90;;;;;;5115273;28;20403;-55
2024/03/24 04:53:20;;;;;;;0.60;0.50;;;4.00;99.90;;;;;;5115479;28;20164;-51
2024/03/24 04:55:46;;;;;;;0.57;0.57;;;3.90;99.90;;;;;;5115336;28;20569;-53
2024/03/24 04:58:11;;;;;;;1.73;1.63;;;3.90;99.90;;;;;;5114990;28;20219;-54
2024/03/24 05:00:37;;;;;;;0.70;0.60;;;3.90;99.90;;;;;;5115115;28;20526;-51
2024/03/24 05:03:04;;;;;;;0.80;0.60;;;4.00;99.90;;;;;;5115157;28;20172;-54
2024/03/24 05:05:30;;;;;;;2.38;0.63;;;4.10;99.90;;;;;;5115212;27;20210;-53
2024/03/24 05:07:57;;;;;;;1.02;0.98;;;4.10;99.90;;;;;;5115121;28;20271;-53
2024/03/24 05:10:23;;;;;;;1.13;0.63;;;4.10;99.90;;;;;;5114933;28;20176;-51
2024/03/24 05:12:49;;;;;;;0.60;0.60;;;4.30;99.90;;;;;;5115028;27;20170;-53
2024/03/24 05:15:14;;;;;;;0.60;0.60;;;4.20;99.90;;;;;;5114925;28;20668;-52
2024/03/24 05:17:41;;;;;;;0.77;0.77;;;4.30;99.90;;;;;;5114781;28;20196;-49
2024/03/24 05:20:10;;;;;;;0.60;0.60;;;4.30;99.90;;;;;;5114773;28;20742;-54
2024/03/24 05:22:37;;;;;;;0.55;0.55;;;4.20;99.90;;;;;;5114757;28;20240;-51
2024/03/24 05:25:04;;;;;;;0.70;0.70;;;4.20;99.90;;;;;;5114664;28;20168;-55
2024/03/24 05:27:30;;;;;;;0.50;0.50;;;4.20;99.90;;;;;;5114642;28;20231;-52
2024/03/24 05:29:55;;;;;;;0.50;0.50;;;3.90;99.90;;;;;;5114374;28;20195;-53
2024/03/24 05:32:21;;;;;;;1.17;0.87;;;3.90;99.90;;;;;;5114486;28;20435;-55
2024/03/24 05:34:47;;;;;;;0.53;0.53;;;3.80;99.90;;;;;;5114749;28;20168;-52
2024/03/24 05:37:13;;;;;;;8.07;1.00;;;3.60;99.90;;;;;;5114615;28;20257;-52
2024/03/24 05:39:40;;;;;;;0.45;0.45;;;3.50;99.90;;;;;;5114297;28;20416;-54
2024/03/24 05:42:06;;;;;;;0.65;0.63;;;3.50;99.90;;;;;;5114505;28;20258;-54
2024/03/24 05:44:32;;;;;;;1.13;0.80;;;3.60;99.90;;;;;;5114316;28;20176;-50
2024/03/24 05:46:58;;;;;;;1.20;0.80;;;3.60;99.90;;;;;;5113639;28;20256;-53
2024/03/24 05:49:24;;;;;;;0.70;0.70;;;3.60;99.90;;;;;;5113935;28;20433;-53
2024/03/24 05:51:50;;;;;;;0.63;0.63;;;3.60;99.90;;;;;;5114222;28;20169;-49
2024/03/24 05:54:16;;;;;;;1.00;0.73;;;3.70;99.90;;;;;;5114122;28;20172;-54
2024/03/24 05:56:41;;;;;;;0.50;0.50;;;4.00;99.90;;;;;;5135675;22;20444;-59
2024/03/24 05:59:07;;;;;;;1.97;0.43;;;3.90;99.90;;;;;;5070576;28;20223;-60
2024/03/24 06:01:33;;;;;;;5.30;0.70;;;4.00;99.90;;;;;;5073593;28;20166;-62
2024/03/24 06:03:58;;;;;;;0.60;0.40;;;3.90;99.30;;;;;;5073539;28;20219;-62
2024/03/24 06:06:24;;;;;;;1.13;0.50;;;3.90;99.40;;;;;;5073290;28;20316;-62
2024/03/24 06:08:50;;;;;;;0.93;0.68;;;3.90;98.60;;;;;;5072903;28;20189;-62
2024/03/24 06:11:16;;;;;;;0.40;0.40;;;3.80;98.30;;;;;;5073341;28;20180;-62
2024/03/24 06:13:42;;;;;;;0.50;0.50;;;3.90;98.90;;;;;;5073080;28;20174;-62
2024/03/24 06:16:07;;;;;;;0.73;0.73;;;3.90;98.40;;;;;;5073184;28;20181;-62
2024/03/24 06:18:33;;;;;;;0.67;0.67;;;3.70;98.70;;;;;;5072865;28;20193;-62
2024/03/24 06:21:00;;;;;;;0.50;0.50;;;3.70;98.80;;;;;;5072904;28;20192;-62
2024/03/24 06:23:26;;;;;;;0.40;0.40;;;3.70;98.90;;;;;;5073046;28;20554;-62
2024/03/24 06:25:51;;;;;;;0.60;0.60;;;3.70;99.50;;;;;;5073358;28;20209;-62
2024/03/24 06:28:17;;;;;;;0.80;0.80;;;3.80;99.30;;;;;;5072650;28;20498;-62
2024/03/24 06:30:43;;;;;;;0.50;0.50;;;4.00;99.40;;;;;;5073350;28;20162;-62
2024/03/24 06:33:08;;;;;;;0.60;0.60;;;4.20;98.80;;;;;;5072826;28;20169;-62
2024/03/24 06:35:34;;;;;;;7.00;0.70;;;4.20;98.50;;;;;;5072778;28;20226;-62
2024/03/24 06:38:00;;;;;;;1.25;0.70;;;4.20;98.50;;;;;;5072653;28;20193;-62
2024/03/24 06:40:26;;;;;;;0.90;0.90;;;4.20;98.40;;;;;;5072735;28;20184;-63
2024/03/24 06:43:02;;;;;;;0.50;0.50;;;4.20;98.50;;;;;;5072503;28;20469;-62
2024/03/24 06:45:34;;;;;;;0.93;0.70;;;4.30;98.50;;;;;;5072669;28;20216;-62
2024/03/24 06:48:00;;;;;;;0.68;0.68;;;4.30;98.50;;;;;;5072508;28;20202;-62
2024/03/24 06:50:27;;;;;;;0.65;0.65;;;4.30;98.70;;;;;;5072008;28;20593;-62
2024/03/24 06:52:56;;;;;;;0.80;0.60;;;4.20;98.50;;;;;;5071063;28;20205;-62
2024/03/24 06:55:24;;;;;;;1.30;1.20;;;4.10;98.60;;;;;;5072293;28;20196;-62
2024/03/24 06:57:50;;;;;;;7.90;1.77;;;4.20;98.50;;;;;;5071273;28;20205;-62
2024/03/24 07:00:17;;;;;;;1.15;0.70;;;4.20;97.70;;;;;;5072061;28;20170;-62
2024/03/24 07:02:43;;;;;;;0.60;0.60;;;4.10;97.90;;;;;;5072088;28;20184;-62
2024/03/24 07:05:09;;;;;;;2.93;0.70;;;4.00;98.10;;;;;;5072072;28;20166;-62
2024/03/24 07:07:36;;;;;;;3.53;0.93;;;3.90;98.50;;;;;;5071902;28;20430;-62
2024/03/24 07:10:05;;;;;;;0.77;0.77;;;3.60;98.70;;;;;;5071258;28;20192;-62
2024/03/24 07:12:33;;;;;;;1.80;0.82;;;3.60;98.80;;;;;;5071493;28;20520;-62
2024/03/24 07:14:59;;;;;;;0.77;0.77;;;3.60;98.80;;;;;;5071994;28;20173;-63
2024/03/24 07:17:25;;;;;;;1.50;1.00;;;3.60;98.50;;;;;;5071477;28;20307;-64
2024/03/24 07:19:51;;;;;;;1.03;0.80;;;3.50;98.40;;;;;;5071756;28;20631;-64
2024/03/24 07:22:17;;;;;;;2.00;0.93;;;3.60;98.40;;;;;;5070923;28;20165;-63
2024/03/24 07:24:43;;;;;;;2.47;0.90;;;3.60;98.20;;;;;;5070328;28;20176;-64
2024/03/24 07:27:09;;;;;;;1.20;1.08;;;3.40;98.00;;;;;;5071512;28;20215;-64
2024/03/24 07:29:34;;;;;;;0.77;0.70;;;3.40;98.20;;;;;;5071593;28;20166;-64
2024/03/24 07:32:00;;;;;;;1.43;0.90;;;3.50;98.50;;;;;;5071808;28;20311;-64
2024/03/24 07:34:26;;;;;;;3.67;1.10;;;3.70;98.70;;;;;;5071844;28;20173;-63
2024/03/24 07:36:51;;;;;;;0.50;0.50;;;3.90;99.90;;;;;;5071596;28;20165;-65
2024/03/24 07:39:17;;;;;;;1.33;0.70;;;4.00;98.60;;;;;;5071297;28;20177;-65
2024/03/24 07:41:43;;;;;;;2.20;0.70;;;4.10;97.70;;;;;;5071926;28;20177;-66
2024/03/24 07:44:08;;;;;;;2.70;1.40;;;4.00;97.40;;;;;;5068562;28;20184;-64
2024/03/24 07:46:34;;;;;;;1.70;1.10;;;4.10;97.90;;;;;;5071490;28;20570;-65
2024/03/24 07:49:00;;;;;;;0.80;0.80;;;3.80;98.10;;;;;;5070779;28;20469;-65
2024/03/24 07:51:31;;;;;;;0.67;0.67;;;3.80;98.20;;;;;;5070276;28;20226;-65
2024/03/24 07:53:56;;;;;;;0.52;0.52;;;3.80;97.90;;;;;;5074275;28;20208;-64
2024/03/24 07:56:22;;;;;;;1.00;0.73;;;3.70;98.10;;;;;;5072240;28;20177;-64
2024/03/24 07:58:47;;;;;;;1.80;1.10;;;3.80;98.40;;;;;;5071188;28;20209;-64
2024/03/24 08:01:14;;;;;;;0.83;0.80;;;3.80;98.00;;;;;;5071587;28;20542;-64
2024/03/24 08:03:39;;;;;;;4.25;0.95;;;3.90;97.80;;;;;;5071523;28;20188;-64
2024/03/24 08:06:05;;;;;;;1.57;0.70;;;3.90;97.60;;;;;;5071309;28;20784;-65
2024/03/24 08:08:31;;;;;;;1.30;1.20;;;3.80;97.90;;;;;;5071335;28;20558;-65
2024/03/24 08:10:56;;;;;;;0.93;0.93;;;4.00;98.20;;;;;;5075087;28;20197;-64
2024/03/24 08:13:22;;;;;;;1.03;0.93;;;4.30;98.00;;;;;;5075516;28;20414;-64
2024/03/24 08:15:48;;;;;;;0.93;0.70;;;4.20;97.30;;;;;;5075350;28;20180;-64
2024/03/24 08:18:14;;;;;;;1.43;0.90;;;4.40;96.80;;;;;;5075125;28;20195;-64
2024/03/24 08:20:47;;;;;;;0.80;0.80;;;4.30;96.40;;;;;;5075161;28;20162;-64
2024/03/24 08:23:13;;;;;;;1.02;0.70;;;4.20;96.70;;;;;;5075488;28;20185;-64
2024/03/24 08:25:42;;;;;;;1.60;0.90;;;4.30;96.80;;;;;;5075314;28;20804;-64
2024/03/24 08:28:08;;;;;;;0.90;0.85;;;4.30;96.50;;;;;;5075048;28;20205;-64
2024/03/24 08:30:34;;;;;;;2.20;1.07;;;4.40;96.50;;;;;;5074950;28;20165;-64
2024/03/24 08:32:59;;;;;;;7.10;0.87;;;4.50;96.70;;;;;;5075032;28;20161;-64
2024/03/24 08:35:25;;;;;;;4.23;1.13;;;4.60;96.60;;;;;;5075026;28;20564;-64
2024/03/24 08:37:51;;;;;;;0.73;0.70;;;4.60;96.30;;;;;;5074966;28;20185;-64
2024/03/24 08:40:17;;;;;;;1.23;0.67;;;4.70;96.40;;;;;;5075148;28;20256;-65
2024/03/24 08:42:46;;;;;;;0.90;0.77;;;5.00;96.50;;;;;;5072670;28;20450;-65
2024/03/24 08:45:12;;;;;;;2.15;1.65;;;4.80;95.20;;;;;;5074572;28;20182;-65
2024/03/24 08:47:37;;;;;;;2.20;0.83;;;4.60;95.20;;;;;;5074801;28;20189;-64
2024/03/24 08:50:04;;;;;;;1.10;0.90;;;4.60;95.70;;;;;;5074303;28;20169;-66
2024/03/24 08:52:29;;;;;;;2.58;0.88;;;4.70;95.60;;;;;;5074401;28;20644;-65
2024/03/24 08:54:55;;;;;;;2.30;0.93;;;4.70;95.30;;;;;;5074761;28;20296;-65
2024/03/24 08:57:21;;;;;;;2.70;1.35;;;4.80;95.30;;;;;;5074507;28;20229;-65
2024/03/24 08:59:47;;;;;;;2.00;1.03;;;4.90;94.90;;;;;;5074392;28;20282;-65
2024/03/24 09:02:13;;;;;;;5.23;1.53;;;5.00;94.50;;;;;;5073256;28;20404;-65
2024/03/24 09:04:38;;;;;;;1.40;1.20;;;5.00;94.40;;;;;;5074465;28;20542;-65
2024/03/24 09:07:04;;;;;;;4.13;1.40;;;4.90;94.60;;;;;;5074417;28;20274;-65
2024/03/24 09:09:30;;;;;;;1.80;1.03;;;4.90;94.90;;;;;;5074297;28;20166;-65
2024/03/24 09:11:55;;;;;;;2.30;0.70;;;4.90;94.80;;;;;;5074487;28;20765;-65
2024/03/24 09:14:21;;;;;;;2.43;1.37;;;5.00;94.80;;;;;;5075378;28;20211;-65
2024/03/24 09:16:47;;;;;;;1.40;1.00;;;5.00;99.90;;;;;;5074475;28;20226;-65
2024/03/24 09:19:15;;;;;;;1.37;1.27;;;4.90;95.10;;;;;;5073939;28;20638;-65
2024/03/24 09:21:40;;;;;;;0.82;0.82;;;4.90;95.20;;;;;;5073487;28;20610;-65
2024/03/24 09:24:07;;;;;;;1.50;1.40;;;4.90;95.00;;;;;;5074206;28;20205;-65
2024/03/24 09:26:35;;;;;;;5.07;2.35;;;4.60;94.80;;;;;;5074089;28;20205;-65
2024/03/24 09:29:01;;;;;;;5.93;1.70;;;4.70;94.80;;;;;;5073708;28;20186;-65
2024/03/24 09:31:26;;;;;;;2.30;1.08;;;4.80;95.30;;;;;;5073907;28;20270;-65
2024/03/24 09:33:52;;;;;;;3.13;1.20;;;5.00;95.40;;;;;;5073994;28;21065;-65
2024/03/24 09:36:18;;;;;;;2.03;1.77;;;5.00;94.80;;;;;;5074046;28;20169;-65
2024/03/24 09:38:44;;;;;;;5.13;2.73;;;5.00;94.90;;;;;;5073537;28;20228;-65
2024/03/24 09:41:10;;;;;;;1.23;1.15;;;5.10;95.60;;;;;;5072573;28;20174;-65
2024/03/24 09:43:35;;;;;;;2.23;1.30;;;5.20;95.20;;;;;;5073745;28;20169;-64
2024/03/24 09:46:03;;;;;;;2.20;0.90;;;5.40;94.80;;;;;;5073548;28;20193;-65
2024/03/24 09:48:30;;;;;;;1.17;0.90;;;5.50;94.50;;;;;;5073528;28;20958;-65
2024/03/24 09:50:56;;;;;;;2.17;1.45;;;5.70;94.30;;;;;;5073541;28;20239;-64
2024/03/24 09:53:22;;;;;;;4.18;0.88;;;5.70;94.20;;;;;;5073631;28;20166;-64
2024/03/24 09:55:49;;;;;;;0.83;0.60;;;5.80;94.00;;;;;;5073531;28;20671;-65
2024/03/24 09:58:17;;;;;;;1.73;0.82;;;5.60;93.70;;;;;;5073501;28;20435;-65
2024/03/24 10:00:44;;;;;;;5.68;0.93;;;5.30;94.10;;;;;;5073261;28;20203;-65
2024/03/24 10:03:09;;;;;;;1.10;1.10;;;5.30;94.10;;;;;;5073406;28;20170;-65
2024/03/24 10:05:36;;;;;;;1.03;1.00;;;5.00;94.50;;;;;;5073385;28;20193;-65
2024/03/24 10:08:02;;;;;;;2.88;1.00;;;5.00;94.70;;;;;;5073192;28;20193;-65
2024/03/24 10:10:28;;;;;;;2.45;1.48;;;5.10;94.10;;;;;;5073121;28;20181;-65
2024/03/24 10:12:55;;;;;;;4.20;1.52;;;5.20;94.40;;;;;;5073149;28;20178;-65
2024/03/24 10:15:22;;;;;;;2.05;1.38;;;5.30;94.80;;;;;;5073041;28;20165;-65
2024/03/24 10:18:11;;;;;;;6.95;3.40;;;5.60;94.40;;;;;;5073057;28;20185;-65
2024/03/24 10:20:38;;;;;;;3.22;1.98;;;5.80;94.50;;;;;;5072975;28;20666;-65
2024/03/24 10:23:04;;;;;;;1.23;1.13;;;6.10;93.70;;;;;;5073041;28;20169;-65
2024/03/24 10:25:31;;;;;;;1.92;1.00;;;6.30;93.30;;;;;;5072851;28;20588;-65
2024/03/24 10:27:58;;;;;;;3.80;1.17;;;6.50;92.40;;;;;;5072800;28;20204;-65
2024/03/24 10:30:24;;;;;;;1.25;0.88;;;6.60;91.70;;;;;;5071274;28;20170;-65
2024/03/24 10:32:51;;;;;;;1.67;1.17;;;6.40;90.80;;;;;;5072821;28;20173;-65
2024/03/24 10:35:18;;;;;;;2.22;0.90;;;6.20;91.00;;;;;;5073463;28;20163;-65
2024/03/24 10:37:44;;;;;;;1.95;0.82;;;6.00;91.90;;;;;;5072928;28;20198;-65
2024/03/24 10:40:14;;;;;;;3.53;2.10;;;5.90;92.40;;;;;;5072432;28;20304;-65
2024/03/24 10:42:42;;;;;;;1.00;0.90;;;5.90;92.60;;;;;;5072464;28;20415;-65
2024/03/24 10:45:09;;;;;;;2.15;0.90;;;6.10;92.90;;;;;;5072604;28;20171;-65
2024/03/24 10:47:36;;;;;;;0.75;0.75;;;6.40;92.10;;;;;;5072360;28;20211;-65
2024/03/24 10:50:02;;;;;;;1.73;0.70;;;6.50;91.50;;;;;;5072281;28;20209;-65
2024/03/24 10:52:31;;;;;;;6.18;1.10;;;6.50;91.80;;;;;;5072506;28;20179;-65
2024/03/24 10:54:57;;;;;;;1.48;0.80;;;6.20;91.40;;;;;;5072285;28;20185;-65
2024/03/24 10:57:28;;;;;;;0.63;0.63;;;5.70;93.00;;;;;;5071867;28;20205;-65
2024/03/24 10:59:54;;;;;;;2.83;1.50;;;5.60;92.80;;;;;;5071836;28;20710;-65
2024/03/24 11:02:21;;;;;;;1.33;0.93;;;5.60;92.30;;;;;;5072406;28;20257;-65
2024/03/24 11:04:51;;;;;;;1.50;1.20;;;5.70;93.30;;;;;;5072224;28;20415;-65
2024/03/24 11:07:17;;;;;;;0.77;0.77;;;6.00;93.10;;;;;;5071764;28;20285;-65
2024/03/24 11:09:43;;;;;;;6.97;1.35;;;6.20;92.50;;;;;;5071837;28;20202;-65
2024/03/24 11:12:10;;;;;;;1.27;1.00;;;6.30;91.80;;;;;;5072104;28;20215;-65
2024/03/24 11:14:36;;;;;;;0.80;0.63;;;6.20;92.40;;;;;;5072214;28;20174;-66
2024/03/24 11:17:03;;;;;;;1.27;1.17;;;6.10;92.20;;;;;;5071342;28;20707;-65
2024/03/24 11:19:29;;;;;;;2.45;1.15;;;5.70;92.20;;;;;;5071446;28;20178;-65
2024/03/24 11:21:57;;;;;;;3.13;1.27;;;5.70;93.00;;;;;;5071673;28;20181;-65
2024/03/24 11:24:28;;;;;;;0.95;0.95;;;5.90;93.20;;;;;;5071907;28;20446;-65
2024/03/24 11:26:54;;;;;;;4.50;1.45;;;6.00;94.30;;;;;;5071821;28;20206;-65
2024/03/24 11:29:44;;;;;;;0.70;0.70;;;6.00;93.60;;;;;;5071696;28;20167;-65
2024/03/24 11:32:11;;;;;;;11.30;7.20;;;6.20;93.20;;;;;;5071833;28;20223;-65
2024/03/24 11:35:03;;;;;;;2.85;2.13;;;6.30;92.40;;;;;;5071736;28;20256;-65
2024/03/24 11:37:31;;;;;;;9.75;5.72;;;6.40;92.10;;;;;;5071479;28;20199;-65
2024/03/24 11:39:58;;;;;;;3.22;1.48;;;6.40;91.70;;;;;;5071500;28;20193;-65
2024/03/24 11:42:31;;;;;;;64.38;31.85;;;6.60;92.70;;;;;;5071762;28;20272;-65
2024/03/24 11:45:16;;;;;;;4.50;3.42;;;6.50;91.80;;;;;;5071147;28;20645;-65
2024/03/24 11:47:44;;;;;;;3.50;2.63;;;6.40;91.90;;;;;;5071546;28;20591;-65
2024/03/24 11:50:10;;;;;;;5.95;4.07;;;6.20;92.30;;;;;;5071539;28;20179;-65
2024/03/24 11:52:36;;;;;;;20.05;11.95;;;6.00;93.00;;;;;;5071384;28;20262;-65
2024/03/24 11:55:04;;;;;;;12.50;4.88;;;6.00;92.90;;;;;;5069379;28;20210;-65
2024/03/24 11:57:30;;;;;;;2.22;1.80;;;6.00;92.90;;;;;;5070566;28;20246;-64
2024/03/24 11:59:57;;;;;;;5.30;3.25;;;6.00;94.70;;;;;;5071731;28;20186;-64
2024/03/24 12:02:22;;;;;;;0.95;0.77;;;5.90;93.80;;;;;;5071869;28;20220;-64
2024/03/24 12:04:49;;;;;;;1.90;1.40;;;5.80;93.40;;;;;;5071708;28;20170;-64
2024/03/24 12:07:14;;;;;;;1.02;0.93;;;5.60;93.00;;;;;;5072167;28;20208;-64
2024/03/24 12:09:44;;;;;;;0.70;0.70;;;5.60;93.60;;;;;;5073466;28;20252;-64
2024/03/24 12:12:10;;;;;;;1.70;1.00;;;5.40;93.40;;;;;;5073725;28;20648;-64
2024/03/24 12:14:35;;;;;;;5.27;3.90;;;5.30;94.50;;;;;;5073963;28;20183;-64
2024/03/24 12:17:08;;;;;;;1.40;0.80;;;5.50;93.60;;;;;;5074290;28;20570;-64
2024/03/24 12:19:35;;;;;;;1.13;1.00;;;6.00;93.40;;;;;;5073470;28;20571;-64
2024/03/24 12:22:01;;;;;;;1.75;1.17;;;6.60;92.70;;;;;;5074015;28;20658;-64
2024/03/24 12:24:27;;;;;;;1.23;1.10;;;6.90;93.00;;;;;;5073831;28;20197;-64
2024/03/24 12:26:56;;;;;;;1.25;1.00;;;7.20;99.70;;;;;;5073685;28;20295;-64
2024/03/24 12:29:21;;;;;;;4.57;3.60;;;7.10;92.10;;;;;;5073406;28;20545;-64
2024/03/24 12:31:50;;;;;;;1.80;1.60;;;6.70;91.60;;;;;;5073847;28;20174;-64
2024/03/24 12:34:18;;;;;;;3.83;1.40;;;6.70;92.70;;;;;;5073926;28;20652;-64
2024/03/24 12:36:44;;;;;;;1.25;1.15;;;5.60;96.60;;;;;;5074117;28;20168;-65
2024/03/24 12:39:10;;;;;;;2.67;1.00;;;5.70;92.10;;;;;;5073645;28;20254;-64
2024/03/24 12:41:35;;;;;;;1.00;0.85;;;5.50;92.10;;;;;;5074095;28;20174;-64
2024/03/24 12:44:01;;;;;;;1.10;1.00;;;5.50;93.20;;;;;;5073707;28;20673;-64
2024/03/24 12:46:34;;;;;;;0.83;0.80;;;5.80;94.30;;;;;;5073368;28;20199;-64
2024/03/24 12:49:13;;;;;;;1.20;1.13;;;5.70;92.90;;;;;;5072537;28;20732;-65
2024/03/24 12:51:39;;;;;;;2.45;1.30;;;6.10;92.70;;;;;;5074052;28;20229;-64
2024/03/24 12:54:13;;;;;;;2.13;2.00;;;6.50;92.50;;;;;;5073920;28;20170;-64